Terminal Aerodrome Forecast
Issued by NWS Pittsburgh, PA

Current Version | Previous Version | Text Only | Print | Product List | Glossary Off
Versions: 1 2 3 4 5 6 7 8 9 10 11 12 13 14 15 16 17 18 19 20 21 22 23 24 25 26 27 28 29

000
FTUS41 KPBZ 260800 AAA
TAFPIT
TAF AMD
KPIT 260857Z 2609/2712 03008KT P6SM BKN100
     FM261500 01008KT 5SM -SHSN OVC025
     FM262100 33010KT P6SM -SHSN OVC020=

USA.gov is the U.S. government's official web portal to all federal, state and local government web resources and services.